createdAt,value
2023-04-27T00:00:19.729Z,98348.69
2023-04-27T00:03:09.923Z,98342.06
2023-04-27T00:05:39.528Z,98347.66
2023-04-27T00:08:08.704Z,98352.59
2023-04-27T00:10:37.021Z,98349.09
2023-04-27T00:13:06.253Z,98349.38
2023-04-27T00:15:34.486Z,98352.41
2023-04-27T00:18:03.081Z,98355.13
2023-04-27T00:20:33.997Z,98345.47
2023-04-27T00:23:02.477Z,98346.66
2023-04-27T00:25:30.675Z,98348.88
2023-04-27T00:27:59.196Z,98348.03
2023-04-27T00:30:27.550Z,98345.56
2023-04-27T00:32:56.237Z,98349.66
2023-04-27T00:35:24.821Z,98347.78
2023-04-27T00:37:56.164Z,98347.97
2023-04-27T00:40:24.440Z,98346.66
2023-04-27T00:42:53.088Z,98347.78
2023-04-27T00:45:21.310Z,98354.34
2023-04-27T00:47:50.236Z,98362.78
2023-04-27T00:50:20.425Z,98352.38
2023-04-27T00:52:49.058Z,98354.31
2023-04-27T00:55:19.630Z,98349.69
2023-04-27T00:57:48.153Z,98358.72
2023-04-27T01:00:16.712Z,98351.91
2023-04-27T01:02:45.438Z,98353.53
2023-04-27T01:05:13.818Z,98359.25
2023-04-27T01:07:42.703Z,98356.81
2023-04-27T01:10:11.588Z,98353.28
2023-04-27T01:12:41.644Z,98350.22
2023-04-27T01:15:11.297Z,98354.34
2023-04-27T01:17:39.837Z,98356.56
2023-04-27T01:20:10.659Z,98356.25
2023-04-27T01:22:39.797Z,98351.63
2023-04-27T01:25:10.107Z,98355.44
2023-04-27T01:27:38.562Z,98360.38
2023-04-27T01:30:08.428Z,98353.25
2023-04-27T01:32:38.503Z,98361.44
2023-04-27T01:35:07.394Z,98362.53
2023-04-27T01:37:37.011Z,98364.19
2023-04-27T01:40:06.771Z,98361.72
2023-04-27T01:42:36.697Z,98365.81
2023-04-27T01:45:05.502Z,98364.75
2023-04-27T01:47:34.180Z,98363.09
2023-04-27T01:50:02.427Z,98365.81
2023-04-27T01:52:30.987Z,98365.53
2023-04-27T01:54:59.134Z,98364.72
2023-04-27T01:57:27.615Z,98373.44
2023-04-27T01:59:57.190Z,98371.84
2023-04-27T02:02:25.760Z,98374.50
2023-04-27T02:04:54.252Z,98369.31
2023-04-27T02:07:22.922Z,98383.47
2023-04-27T02:09:51.145Z,98374.47
2023-04-27T02:12:19.729Z,98377.44
2023-04-27T02:14:47.913Z,98374.44
2023-04-27T02:17:17.688Z,98377.00
2023-04-27T02:19:45.874Z,98375.59
2023-04-27T02:22:14.331Z,98367.91
2023-04-27T02:24:42.430Z,98369.00
2023-04-27T02:27:11.051Z,98374.47
2023-04-27T02:29:40.004Z,98366.56
2023-04-27T02:32:09.078Z,98363.81
2023-04-27T02:34:38.538Z,98370.19
2023-04-27T02:37:07.059Z,98370.06
2023-04-27T02:39:35.987Z,98369.34
2023-04-27T02:42:04.507Z,98368.16
2023-04-27T02:44:32.658Z,98368.44
2023-04-27T02:47:01.207Z,98374.44
2023-04-27T02:49:29.399Z,98370.63
2023-04-27T02:51:59.361Z,98366.34
2023-04-27T02:54:27.594Z,98370.06
2023-04-27T02:56:56.121Z,98360.25
2023-04-27T02:59:24.499Z,98365.44
2023-04-27T03:01:53.120Z,98373.63
2023-04-27T03:04:21.443Z,98372.81
2023-04-27T03:06:49.970Z,98380.19
2023-04-27T03:09:19.600Z,98376.72
2023-04-27T03:11:48.060Z,98378.00
2023-04-27T03:14:16.333Z,98381.81
2023-04-27T03:16:44.878Z,98387.28
2023-04-27T03:19:13.298Z,98382.66
2023-04-27T03:21:42.011Z,98381.53
2023-04-27T03:24:10.231Z,98395.47
2023-04-27T03:26:40.083Z,98389.81
2023-04-27T03:29:08.283Z,98390.75
2023-04-27T03:31:36.912Z,98389.41
2023-04-27T03:34:05.359Z,98387.47
2023-04-27T03:36:33.989Z,98389.81
2023-04-27T03:39:02.185Z,98391.19
2023-04-27T03:41:30.888Z,98397.50
2023-04-27T03:44:00.815Z,98401.47
2023-04-27T03:46:29.273Z,98412.25
2023-04-27T03:48:57.562Z,98401.66
2023-04-27T03:51:27.099Z,98406.59
2023-04-27T03:53:55.782Z,98415.03
2023-04-27T03:56:24.356Z,98411.00
2023-04-27T03:58:52.813Z,98416.22
2023-04-27T04:01:22.761Z,98414.97
2023-04-27T04:03:51.837Z,98417.13
2023-04-27T04:06:20.920Z,98421.25
2023-04-27T04:08:49.167Z,98416.63
2023-04-27T04:11:17.624Z,98421.00
2023-04-27T04:13:46.226Z,98426.44
2023-04-27T04:16:14.748Z,98415.66
2023-04-27T04:18:44.276Z,98420.19
2023-04-27T04:21:12.795Z,98416.06
2023-04-27T04:23:41.935Z,98422.91
2023-04-27T04:26:10.392Z,98418.72
2023-04-27T04:28:38.549Z,98417.84
2023-04-27T04:31:09.957Z,98425.38
2023-04-27T04:33:38.353Z,98433.38
2023-04-27T04:36:09.146Z,98433.94
2023-04-27T04:38:37.482Z,98429.66
2023-04-27T04:41:07.403Z,98437.81
2023-04-27T04:43:35.670Z,98435.78
2023-04-27T04:46:04.319Z,98446.84
2023-04-27T04:48:32.462Z,98448.81
2023-04-27T04:51:01.311Z,98440.25
2023-04-27T04:53:30.865Z,98448.28
2023-04-27T04:55:59.497Z,98446.94
2023-04-27T04:58:27.713Z,98442.16
2023-04-27T05:00:56.543Z,98445.31
2023-04-27T05:03:24.993Z,98444.94
2023-04-27T05:05:53.526Z,98447.31
2023-04-27T05:08:21.780Z,98450.34
2023-04-27T05:10:52.130Z,98449.25
2023-04-27T05:13:20.396Z,98453.53
2023-04-27T05:15:49.007Z,98450.25
2023-04-27T05:18:17.250Z,98453.63
2023-04-27T05:20:45.744Z,98459.25
2023-04-27T05:23:13.973Z,98458.41
2023-04-27T05:25:43.118Z,98462.75
2023-04-27T05:28:12.974Z,98453.66
2023-04-27T05:30:41.465Z,98463.09
2023-04-27T05:33:09.714Z,98453.28
2023-04-27T05:35:38.311Z,98461.34
2023-04-27T05:38:06.570Z,98459.22
2023-04-27T05:40:35.200Z,98463.94
2023-04-27T05:43:05.677Z,98470.16
2023-04-27T05:45:40.623Z,98466.22
2023-04-27T05:48:08.949Z,98471.41
2023-04-27T05:50:37.520Z,98472.31
2023-04-27T05:53:06.247Z,98476.03
2023-04-27T05:55:35.063Z,98473.81
2023-04-27T05:58:08.647Z,98479.19
2023-04-27T06:00:39.333Z,98476.41
2023-04-27T06:03:08.035Z,98479.00
2023-04-27T06:05:37.143Z,98481.81
2023-04-27T06:08:05.912Z,98480.03
2023-04-27T06:10:34.789Z,98481.50
2023-04-27T06:13:03.277Z,98483.09
2023-04-27T06:15:32.080Z,98485.13
2023-04-27T06:18:02.172Z,98480.84
2023-04-27T06:20:31.693Z,98480.81
2023-04-27T06:23:00.728Z,98483.66
2023-04-27T06:25:29.697Z,98486.06
2023-04-27T06:27:58.490Z,98475.63
2023-04-27T06:30:28.139Z,98487.31
2023-04-27T06:32:56.969Z,98494.53
2023-04-27T06:35:28.154Z,98486.81
2023-04-27T06:37:59.166Z,98491.47
2023-04-27T06:40:28.164Z,98496.28
2023-04-27T06:42:57.321Z,98490.47
2023-04-27T06:45:27.159Z,98487.31
2023-04-27T06:47:56.427Z,98501.16
2023-04-27T06:50:27.255Z,98490.03
2023-04-27T06:52:56.400Z,98491.69
2023-04-27T06:55:25.401Z,98493.63
2023-04-27T06:57:54.754Z,98491.13
2023-04-27T07:00:28.486Z,98488.06
2023-04-27T07:02:57.002Z,98493.72
2023-04-27T07:05:29.057Z,98495.31
2023-04-27T07:07:57.390Z,98494.28
2023-04-27T07:10:26.744Z,98488.88
2023-04-27T07:12:55.160Z,98484.72
2023-04-27T07:15:24.417Z,98484.25
2023-04-27T07:17:54.221Z,98488.78
2023-04-27T07:20:23.044Z,98486.31
2023-04-27T07:22:52.973Z,98495.31
2023-04-27T07:25:21.981Z,98488.97
2023-04-27T07:27:51.109Z,98492.31
2023-04-27T07:30:20.329Z,98480.41
2023-04-27T07:32:54.615Z,98484.03
2023-04-27T07:35:25.052Z,98483.69
2023-04-27T07:37:55.197Z,98479.84
2023-04-27T07:40:25.815Z,98485.13
2023-04-27T07:42:55.232Z,98485.19
2023-04-27T07:45:32.224Z,98481.28
2023-04-27T07:48:02.367Z,98484.06
2023-04-27T07:50:32.635Z,98480.06
2023-04-27T07:53:02.688Z,98477.81
2023-04-27T07:55:33.408Z,98479.13
2023-04-27T07:58:02.363Z,98489.09
2023-04-27T08:00:31.890Z,98482.94
2023-04-27T08:03:00.913Z,98478.47
2023-04-27T08:05:32.864Z,98482.44
2023-04-27T08:08:03.176Z,98488.69
2023-04-27T08:10:32.510Z,98488.16
2023-04-27T08:13:01.213Z,98481.44
2023-04-27T08:15:30.030Z,98498.59
2023-04-27T08:17:58.359Z,98489.06
2023-04-27T08:20:27.925Z,98482.44
2023-04-27T08:22:56.915Z,98486.69
2023-04-27T08:25:28.555Z,98482.69
2023-04-27T08:27:57.221Z,98485.69
2023-04-27T08:30:26.297Z,98490.41
2023-04-27T08:32:55.749Z,98487.84
2023-04-27T08:35:24.984Z,98482.53
2023-04-27T08:37:54.407Z,98490.75
2023-04-27T08:40:25.036Z,98481.31
2023-04-27T08:42:59.976Z,98488.81
2023-04-27T08:45:29.362Z,98488.69
2023-04-27T08:47:58.068Z,98491.63
2023-04-27T08:50:27.515Z,98489.59
2023-04-27T08:52:56.909Z,98487.59
2023-04-27T08:55:28.592Z,98486.44
2023-04-27T08:58:01.642Z,98492.59
2023-04-27T09:00:40.912Z,98487.97
2023-04-27T09:03:09.445Z,98481.91
2023-04-27T09:05:44.132Z,98480.41
2023-04-27T09:08:17.692Z,98483.91
2023-04-27T09:10:47.658Z,98485.72
2023-04-27T09:13:17.300Z,98484.03
2023-04-27T09:15:48.563Z,98480.41
2023-04-27T09:18:18.617Z,98486.97
2023-04-27T09:20:48.198Z,98481.44
2023-04-27T09:23:29.528Z,98483.28
2023-04-27T09:25:59.512Z,98483.75
2023-04-27T09:28:30.966Z,98492.47
2023-04-27T09:31:01.116Z,98491.03
2023-04-27T09:33:30.559Z,98488.09
2023-04-27T09:36:02.611Z,98487.53
2023-04-27T09:38:31.715Z,98492.47
2023-04-27T09:41:00.931Z,98482.63
2023-04-27T09:43:31.631Z,98478.97
2023-04-27T09:46:00.424Z,98478.00
2023-04-27T09:48:31.765Z,98482.81
2023-04-27T09:51:00.637Z,98479.97
2023-04-27T09:53:33.328Z,98483.53
2023-04-27T09:56:14.934Z,98486.78
2023-04-27T09:59:07.901Z,98482.31
2023-04-27T10:01:41.104Z,98485.25
2023-04-27T10:04:28.187Z,98497.44
2023-04-27T10:07:01.467Z,98485.63
2023-04-27T10:09:37.907Z,98485.16
2023-04-27T10:12:18.076Z,98478.69
2023-04-27T10:14:52.632Z,98489.41
2023-04-27T10:17:26.229Z,98489.25
2023-04-27T10:19:58.701Z,98485.44
2023-04-27T10:22:40.132Z,98489.31
2023-04-27T10:25:16.660Z,98490.22
2023-04-27T10:27:46.410Z,98482.78
2023-04-27T10:30:19.494Z,98490.41
2023-04-27T10:32:56.168Z,98484.03
2023-04-27T10:35:34.489Z,98483.94
2023-04-27T10:38:07.818Z,98483.13
2023-04-27T10:40:37.320Z,98484.94
2023-04-27T10:43:13.113Z,98489.81
2023-04-27T10:45:43.760Z,98481.19
2023-04-27T10:48:15.870Z,98481.44
2023-04-27T10:50:44.993Z,98491.22
2023-04-27T10:53:14.301Z,98488.00
2023-04-27T10:55:42.661Z,98499.22
2023-04-27T10:58:11.421Z,98498.44
2023-04-27T11:00:44.980Z,98500.81
2023-04-27T11:03:16.898Z,98495.72
2023-04-27T11:05:47.025Z,98493.69
2023-04-27T11:08:16.696Z,98498.84
2023-04-27T11:10:46.625Z,98496.56
2023-04-27T11:13:17.968Z,98504.59
2023-04-27T11:15:49.115Z,98506.88
2023-04-27T11:18:18.827Z,98507.91
2023-04-27T11:20:49.515Z,98509.81
2023-04-27T11:23:26.303Z,98502.59
2023-04-27T11:25:55.224Z,98498.13
2023-04-27T11:28:24.810Z,98495.31
2023-04-27T11:31:01.394Z,98498.19
2023-04-27T11:33:30.232Z,98504.25
2023-04-27T11:35:58.666Z,98501.38
2023-04-27T11:38:28.394Z,98487.78
2023-04-27T11:41:05.108Z,98488.25
2023-04-27T11:43:34.332Z,98495.16
2023-04-27T11:46:06.410Z,98501.88
2023-04-27T11:48:38.212Z,98495.81
2023-04-27T11:51:07.224Z,98503.84
2023-04-27T11:53:40.087Z,98512.56
2023-04-27T11:56:11.344Z,98501.56
2023-04-27T11:58:40.916Z,98504.13
2023-04-27T12:01:12.226Z,98496.56
2023-04-27T12:03:41.775Z,98509.53
2023-04-27T12:06:22.067Z,98507.22
2023-04-27T12:08:57.870Z,98510.09
2023-04-27T12:11:27.860Z,98513.88
2023-04-27T12:13:56.949Z,98517.91
2023-04-27T12:16:27.058Z,98511.22
2023-04-27T12:18:55.681Z,98508.94
2023-04-27T12:21:24.365Z,98502.16
2023-04-27T12:23:53.010Z,98500.06
2023-04-27T12:26:21.762Z,98500.44
2023-04-27T12:28:50.742Z,98502.59
2023-04-27T12:31:25.363Z,98500.44
2023-04-27T12:33:57.099Z,98498.97
2023-04-27T12:36:27.259Z,98489.50
2023-04-27T12:39:00.163Z,98495.97
2023-04-27T12:41:29.362Z,98498.88
2023-04-27T12:43:58.123Z,98503.34
2023-04-27T12:46:26.503Z,98492.69
2023-04-27T12:48:57.287Z,98498.50
2023-04-27T12:51:25.930Z,98493.66
2023-04-27T12:53:54.611Z,98503.75
2023-04-27T12:56:23.095Z,98489.13
2023-04-27T12:58:51.631Z,98493.75
2023-04-27T13:01:24.802Z,98494.97
2023-04-27T13:03:54.470Z,98498.09
2023-04-27T13:06:24.599Z,98498.88
2023-04-27T13:08:53.250Z,98501.88
2023-04-27T13:11:22.091Z,98496.41
2023-04-27T13:13:50.862Z,98492.34
2023-04-27T13:16:19.418Z,98499.97
2023-04-27T13:18:50.592Z,98498.03
2023-04-27T13:21:19.442Z,98495.22
2023-04-27T13:23:49.749Z,98498.91
2023-04-27T13:26:18.159Z,98499.03
2023-04-27T13:28:46.807Z,98501.00
2023-04-27T13:31:15.241Z,98494.63
2023-04-27T13:33:45.988Z,98492.19
2023-04-27T13:36:15.184Z,98500.72
2023-04-27T13:38:43.904Z,98495.84
2023-04-27T13:41:13.829Z,98495.88
2023-04-27T13:43:42.589Z,98491.44
2023-04-27T13:46:12.333Z,98499.38
2023-04-27T13:48:41.027Z,98492.38
2023-04-27T13:51:09.365Z,98498.00
2023-04-27T13:53:38.089Z,98498.56
2023-04-27T13:56:06.764Z,98497.94
2023-04-27T13:58:37.173Z,98503.94
2023-04-27T14:01:05.747Z,98508.97
2023-04-27T14:03:35.754Z,98517.72
2023-04-27T14:06:04.456Z,98505.56
2023-04-27T14:08:33.096Z,98511.81
2023-04-27T14:11:01.711Z,98512.00
2023-04-27T14:13:30.503Z,98515.25
2023-04-27T14:16:00.227Z,98506.84
2023-04-27T14:18:32.500Z,98507.34
2023-04-27T14:21:01.196Z,98510.81
2023-04-27T14:23:30.210Z,98513.13
2023-04-27T14:25:59.095Z,98513.34
2023-04-27T14:28:27.947Z,98513.03
2023-04-27T14:30:56.274Z,98522.69
2023-04-27T14:33:26.634Z,98520.16
2023-04-27T14:35:56.254Z,98518.81
2023-04-27T14:38:27.698Z,98517.19
2023-04-27T14:40:56.340Z,98520.25
2023-04-27T14:43:25.303Z,98513.22
2023-04-27T14:45:59.518Z,98528.69
2023-04-27T14:48:35.230Z,98522.88
2023-04-27T14:51:03.780Z,98524.25
2023-04-27T14:53:32.513Z,98514.34
2023-04-27T14:56:00.921Z,98520.66
2023-04-27T14:58:32.170Z,98521.00
2023-04-27T15:01:04.017Z,98521.38
2023-04-27T15:03:34.540Z,98528.75
2023-04-27T15:06:05.308Z,98530.75
2023-04-27T15:08:34.393Z,98521.72
2023-04-27T15:11:04.488Z,98530.97
2023-04-27T15:13:33.169Z,98525.28
2023-04-27T15:16:02.278Z,98540.09
2023-04-27T15:18:30.903Z,98538.00
2023-04-27T15:21:01.082Z,98534.38
2023-04-27T15:23:29.840Z,98534.41
2023-04-27T15:25:59.157Z,98548.09
2023-04-27T15:28:27.786Z,98547.78
2023-04-27T15:30:56.351Z,98539.63
2023-04-27T15:33:25.247Z,98538.16
2023-04-27T15:35:53.800Z,98535.06
2023-04-27T15:38:24.018Z,98541.91
2023-04-27T15:40:52.436Z,98539.44
2023-04-27T15:43:21.781Z,98534.38
2023-04-27T15:45:50.768Z,98543.34
2023-04-27T15:48:19.419Z,98540.56
2023-04-27T15:50:48.431Z,98540.28
2023-04-27T15:53:17.260Z,98541.06
2023-04-27T15:55:47.100Z,98545.84
2023-04-27T15:58:16.938Z,98540.28
2023-04-27T16:00:46.042Z,98536.00
2023-04-27T16:03:15.015Z,98535.69
2023-04-27T16:05:44.309Z,98539.88
2023-04-27T16:08:12.989Z,98541.94
2023-04-27T16:10:41.485Z,98539.84
2023-04-27T16:13:13.281Z,98540.75
2023-04-27T16:15:41.294Z,98548.59
2023-04-27T16:18:10.358Z,98547.16
2023-04-27T16:20:38.867Z,98545.16
2023-04-27T16:23:07.878Z,98547.50
2023-04-27T16:25:36.403Z,98547.94
2023-04-27T16:28:05.240Z,98541.47
2023-04-27T16:30:35.186Z,98543.84
2023-04-27T16:33:03.939Z,98551.53
2023-04-27T16:35:33.709Z,98554.69
2023-04-27T16:38:03.455Z,98556.16
2023-04-27T16:40:32.165Z,98555.06
2023-04-27T16:43:01.232Z,98551.28
2023-04-27T16:45:29.889Z,98549.81
2023-04-27T16:48:00.199Z,98559.38
2023-04-27T16:50:31.615Z,98556.97
2023-04-27T16:53:06.446Z,98558.97
2023-04-27T16:55:34.864Z,98565.22
2023-04-27T16:58:03.829Z,98561.16
2023-04-27T17:00:32.364Z,98562.59
2023-04-27T17:03:02.565Z,98563.22
2023-04-27T17:05:30.938Z,98564.38
2023-04-27T17:07:59.476Z,98566.88
2023-04-27T17:10:28.101Z,98566.56
2023-04-27T17:12:56.626Z,98567.13
2023-04-27T17:15:26.294Z,98573.97
2023-04-27T17:17:55.115Z,98571.13
2023-04-27T17:20:25.072Z,98575.72
2023-04-27T17:22:54.257Z,98578.38
2023-04-27T17:25:22.932Z,98575.53
2023-04-27T17:27:51.571Z,98583.41
2023-04-27T17:30:20.184Z,98584.16
2023-04-27T17:32:49.054Z,98576.09
2023-04-27T17:35:20.524Z,98576.50
2023-04-27T17:37:50.732Z,98574.94
2023-04-27T17:40:21.086Z,98576.81
2023-04-27T17:42:49.683Z,98582.53
2023-04-27T17:45:18.326Z,98574.94
2023-04-27T17:47:46.941Z,98577.47
2023-04-27T17:50:15.309Z,98577.13
2023-04-27T17:52:44.165Z,98584.41
2023-04-27T17:55:13.865Z,98582.69
2023-04-27T17:57:42.501Z,98586.28
2023-04-27T18:00:12.207Z,98591.53
2023-04-27T18:02:40.941Z,98587.72
2023-04-27T18:05:09.497Z,98590.38
2023-04-27T18:07:38.564Z,98592.53
2023-04-27T18:10:08.292Z,98589.25
2023-04-27T18:12:38.327Z,98590.88
2023-04-27T18:15:09.785Z,98590.19
2023-04-27T18:17:38.626Z,98597.06
2023-04-27T18:20:10.514Z,98599.00
2023-04-27T18:22:40.356Z,98597.44
2023-04-27T18:25:10.021Z,98604.72
2023-04-27T18:27:39.968Z,98601.59
2023-04-27T18:30:09.438Z,98606.03
2023-04-27T18:32:38.285Z,98610.19
2023-04-27T18:35:07.428Z,98611.00
2023-04-27T18:37:36.176Z,98609.84
2023-04-27T18:40:06.141Z,98619.50
2023-04-27T18:42:35.618Z,98618.16
2023-04-27T18:45:06.304Z,98615.56
2023-04-27T18:47:34.862Z,98612.44
2023-04-27T18:50:03.413Z,98616.13
2023-04-27T18:52:32.174Z,98615.03
2023-04-27T18:55:00.450Z,98624.41
2023-04-27T18:57:29.110Z,98622.84
2023-04-27T18:59:57.368Z,98615.84
2023-04-27T19:02:27.614Z,98615.50
2023-04-27T19:05:10.965Z,98619.13
2023-04-27T19:07:41.318Z,98621.47
2023-04-27T19:10:10.967Z,98625.19
2023-04-27T19:12:39.663Z,98628.09
2023-04-27T19:15:08.340Z,98624.28
2023-04-27T19:17:38.824Z,98627.78
2023-04-27T19:20:08.362Z,98631.56
2023-04-27T19:22:37.143Z,98624.22
2023-04-27T19:25:06.139Z,98628.59
2023-04-27T19:27:34.714Z,98629.47
2023-04-27T19:30:04.336Z,98635.28
2023-04-27T19:32:34.484Z,98635.63
2023-04-27T19:35:04.672Z,98642.53
2023-04-27T19:37:33.262Z,98644.38
2023-04-27T19:40:01.878Z,98643.84
2023-04-27T19:42:30.763Z,98640.06
2023-04-27T19:44:59.007Z,98638.41
2023-04-27T19:47:27.589Z,98643.91
2023-04-27T19:49:58.502Z,98648.84
2023-04-27T19:52:28.568Z,98637.97
2023-04-27T19:54:57.816Z,98643.91
2023-04-27T19:57:26.878Z,98641.41
2023-04-27T19:59:55.329Z,98648.56
2023-04-27T20:02:24.101Z,98639.53
2023-04-27T20:04:52.937Z,98653.78
2023-04-27T20:07:21.772Z,98649.94
2023-04-27T20:09:51.536Z,98646.59
2023-04-27T20:12:43.609Z,98651.34
2023-04-27T20:15:09.742Z,98652.09
2023-04-27T20:17:38.322Z,98652.44
2023-04-27T20:20:10.581Z,98654.31
2023-04-27T20:22:39.477Z,98655.44
2023-04-27T20:25:10.047Z,98654.78
2023-04-27T20:27:38.763Z,98648.03
2023-04-27T20:30:08.341Z,98648.22
2023-04-27T20:32:37.215Z,98660.88
2023-04-27T20:35:05.845Z,98658.72
2023-04-27T20:37:34.307Z,98653.75
2023-04-27T20:40:02.525Z,98659.81
2023-04-27T20:42:32.694Z,98649.25
2023-04-27T20:45:01.132Z,98660.34
2023-04-27T20:47:29.723Z,98657.91
2023-04-27T20:49:57.957Z,98664.22
2023-04-27T20:52:29.405Z,98657.31
2023-04-27T20:54:59.347Z,98661.97
2023-04-27T20:57:27.880Z,98664.72
2023-04-27T20:59:57.646Z,98659.97
2023-04-27T21:02:26.301Z,98661.22
2023-04-27T21:04:54.761Z,98658.41
2023-04-27T21:07:26.053Z,98653.22
2023-04-27T21:09:54.435Z,98649.09
2023-04-27T21:12:22.946Z,98654.03
2023-04-27T21:14:51.523Z,98649.38
2023-04-27T21:17:21.753Z,98658.06
2023-04-27T21:19:49.983Z,98651.59
2023-04-27T21:22:18.573Z,98644.44
2023-04-27T21:24:47.716Z,98647.94
2023-04-27T21:27:16.305Z,98649.44
2023-04-27T21:29:44.601Z,98648.63
2023-04-27T21:32:13.036Z,98651.13
2023-04-27T21:34:42.697Z,98656.25
2023-04-27T21:37:11.502Z,98655.03
2023-04-27T21:39:39.836Z,98662.69
2023-04-27T21:42:08.626Z,98658.31
2023-04-27T21:44:36.804Z,98660.25
2023-04-27T21:47:05.446Z,98651.47
2023-04-27T21:49:33.862Z,98659.69
2023-04-27T21:52:03.723Z,98661.56
2023-04-27T21:54:32.169Z,98660.50
2023-04-27T21:57:00.909Z,98671.47
2023-04-27T21:59:29.442Z,98680.78
2023-04-27T22:01:59.405Z,98668.72
2023-04-27T22:04:29.082Z,98671.44
2023-04-27T22:06:57.778Z,98674.44
2023-04-27T22:09:27.419Z,98667.38
2023-04-27T22:11:55.990Z,98673.66
2023-04-27T22:14:24.212Z,98666.81
2023-04-27T22:16:52.762Z,98664.91
2023-04-27T22:19:20.992Z,98668.44
2023-04-27T22:21:49.530Z,98658.88
2023-04-27T22:24:18.262Z,98663.25
2023-04-27T22:26:48.463Z,98667.56
2023-04-27T22:29:16.859Z,98667.63
2023-04-27T22:31:46.714Z,98661.25
2023-04-27T22:34:15.322Z,98660.53
2023-04-27T22:36:43.989Z,98661.88
2023-04-27T22:39:12.276Z,98659.69
2023-04-27T22:41:41.255Z,98661.63
2023-04-27T22:44:11.081Z,98665.69
2023-04-27T22:46:39.607Z,98661.31
2023-04-27T22:49:08.159Z,98663.78
2023-04-27T22:51:37.490Z,98673.09
2023-04-27T22:54:06.078Z,98669.28
2023-04-27T22:56:34.598Z,98670.09
2023-04-27T22:59:02.837Z,98670.66
2023-04-27T23:01:32.917Z,98669.19
2023-04-27T23:04:01.296Z,98674.72
2023-04-27T23:06:30.472Z,98666.75
2023-04-27T23:08:59.228Z,98679.91
2023-04-27T23:11:28.642Z,98669.66
2023-04-27T23:13:57.586Z,98666.47
2023-04-27T23:16:26.830Z,98670.88
2023-04-27T23:18:56.333Z,98667.53
2023-04-27T23:21:26.470Z,98676.91
2023-04-27T23:23:54.748Z,98676.41
2023-04-27T23:26:23.222Z,98676.13
2023-04-27T23:28:51.377Z,98678.84
2023-04-27T23:31:19.992Z,98675.84
2023-04-27T23:33:48.252Z,98671.19
2023-04-27T23:36:18.189Z,98669.81
2023-04-27T23:38:46.396Z,98669.81
2023-04-27T23:41:14.911Z,98666.53
2023-04-27T23:43:43.208Z,98662.72
2023-04-27T23:46:11.717Z,98672.28
2023-04-27T23:48:40.019Z,98659.16
2023-04-27T23:51:08.527Z,98659.97
2023-04-27T23:53:38.138Z,98655.03
2023-04-27T23:56:07.341Z,98655.06
2023-04-27T23:58:35.561Z,98655.03
